Time;durP1;ratioP1;P1;durP2;ratioP2;P2;SDS_P1;SDS_P2;PMS_P1;PMS_P2;Temp;Humidity;BMP_temperature;BMP_pressure;BME280_temperature;BME280_humidity;BME280_pressure;Samples;Min_cycle;Max_cycle;Signal;HPM_P1;HPM_P2
2023/02/14 00:01:52;;;;;;;13.30;10.40;;;;;;;7.03;60.41;102675.89;107021;1269;25456;-58
2023/02/14 00:04:20;;;;;;;12.30;9.90;;;;;;;7.04;60.49;102670.89;107057;1267;22628;-58
2023/02/14 00:06:51;;;;;;;13.80;10.40;;;;;;;7.06;60.37;102670.60;106210;1272;1016558;-59
2023/02/14 00:09:20;;;;;;;16.20;12.50;;;;;;;7.07;60.30;102668.02;106774;1267;25443;-58
2023/02/14 00:11:51;;;;;;;18.10;10.80;;;;;;;7.05;60.14;102664.36;107097;1267;25424;-59
2023/02/14 00:17:07;;;;;;;13.30;10.20;;;;;;;7.04;60.25;102654.66;107077;1269;25368;-59
2023/02/14 00:19:36;;;;;;;12.80;9.90;;;;;;;7.04;60.22;102646.90;107135;1269;25383;-58
2023/02/14 00:22:05;;;;;;;13.80;10.30;;;;;;;7.05;60.20;102646.06;106301;1269;1002845;-58
2023/02/14 00:24:33;;;;;;;14.00;10.60;;;;;;;7.06;60.03;102642.65;106774;1272;22527;-58
2023/02/14 00:27:02;;;;;;;13.00;10.10;;;;;;;7.07;59.98;102640.76;107167;1269;25421;-58
2023/02/14 00:29:31;;;;;;;14.00;10.80;;;;;;;7.05;59.93;102627.79;107078;1267;24445;-59
2023/02/14 00:32:01;;;;;;;14.60;10.90;;;;;;;7.04;59.91;102623.09;106879;1267;25606;-58
2023/02/14 00:34:32;;;;;;;16.90;10.50;;;;;;;7.02;59.90;102620.63;107014;1267;25372;-58
2023/02/14 00:37:01;;;;;;;13.80;10.50;;;;;;;7.01;60.02;102618.55;106753;1269;24379;-58
2023/02/14 00:39:31;;;;;;;16.40;11.40;;;;;;;7.03;60.01;102621.00;106764;1275;25498;-58
2023/02/14 00:42:00;;;;;;;12.10;10.10;;;;;;;7.04;59.97;102623.27;106975;1269;25366;-59
2023/02/14 00:44:28;;;;;;;13.70;10.00;;;;;;;7.05;59.85;102611.55;107102;1269;25457;-58
2023/02/14 00:46:58;;;;;;;15.40;10.50;;;;;;;7.03;59.78;102611.52;106329;1268;1003225;-58
2023/02/14 00:49:26;;;;;;;14.40;11.40;;;;;;;7.02;59.96;102606.31;106285;1267;1005621;-58
2023/02/14 00:51:55;;;;;;;14.00;10.40;;;;;;;7.01;59.82;102605.08;107022;1272;26641;-58
2023/02/14 00:54:24;;;;;;;12.50;10.20;;;;;;;7.00;59.87;102600.41;107011;1267;25379;-58
2023/02/14 00:56:52;;;;;;;14.50;10.40;;;;;;;7.01;60.08;102593.87;106845;1269;25331;-58
2023/02/14 00:59:21;;;;;;;13.50;10.40;;;;;;;7.03;59.92;102587.52;106314;1269;1003665;-58
2023/02/14 01:01:49;;;;;;;13.30;10.10;;;;;;;7.11;59.69;102582.03;107195;1269;25395;-58
2023/02/14 01:04:18;;;;;;;13.60;10.10;;;;;;;7.15;59.46;102577.45;106904;1268;25516;-59
2023/02/14 01:06:47;;;;;;;15.40;9.90;;;;;;;7.15;59.33;102577.61;106883;1269;22519;-59
2023/02/14 01:09:15;;;;;;;11.90;9.90;;;;;;;7.13;59.32;102572.92;106560;1256;24222;-58
2023/02/14 01:11:45;;;;;;;13.50;9.20;;;;;;;7.12;59.44;102569.45;106496;1266;22585;-58
2023/02/14 01:14:15;;;;;;;12.40;9.50;;;;;;;7.12;59.25;102564.95;106701;1270;22525;-58
2023/02/14 01:16:43;;;;;;;12.10;9.50;;;;;;;7.12;59.04;102560.99;106795;1269;25360;-59
2023/02/14 01:19:12;;;;;;;13.40;10.00;;;;;;;7.12;58.97;102558.23;106420;1270;24705;-59
2023/02/14 01:21:44;;;;;;;12.40;9.60;;;;;;;7.12;58.87;102558.23;106678;1267;25351;-58
2023/02/14 01:24:12;;;;;;;13.70;9.40;;;;;;;7.12;58.71;102552.17;105930;1275;1015180;-59
2023/02/14 01:26:43;;;;;;;14.20;10.70;;;;;;;7.12;58.54;102540.95;105679;1269;1003224;-58
2023/02/14 01:29:11;;;;;;;12.00;8.90;;;;;;;7.13;58.32;102528.20;106817;1269;25359;-58
2023/02/14 01:31:41;;;;;;;12.90;9.60;;;;;;;7.14;58.05;102521.16;106257;1269;1002932;-58
2023/02/14 01:34:09;;;;;;;13.00;9.60;;;;;;;7.14;57.79;102517.38;107112;1267;24677;-58
2023/02/14 01:36:39;;;;;;;14.30;10.00;;;;;;;7.13;57.51;102512.52;107060;1269;25357;-58
2023/02/14 01:39:14;;;;;;;16.40;10.50;;;;;;;7.10;57.33;102512.27;107008;1269;22521;-59
2023/02/14 01:41:48;;;;;;;13.80;10.40;;;;;;;7.07;57.11;102511.17;107174;1269;22527;-59
2023/02/14 01:44:17;;;;;;;14.70;10.80;;;;;;;7.03;57.18;102508.33;106339;1267;1003489;-58
2023/02/14 01:46:45;;;;;;;13.80;11.00;;;;;;;7.01;57.08;102502.93;107068;1269;25525;-58
2023/02/14 01:49:17;;;;;;;14.30;10.80;;;;;;;7.01;56.92;102496.73;106068;1272;1003329;-58
2023/02/14 01:51:58;;;;;;;16.90;11.70;;;;;;;7.02;56.72;102504.69;106959;1253;25412;-58
2023/02/14 01:54:26;;;;;;;14.40;10.70;;;;;;;7.00;56.45;102502.58;106236;1269;1003794;-58
2023/02/14 01:56:57;;;;;;;14.60;10.40;;;;;;;6.98;56.43;102499.25;106153;1267;1003071;-58
2023/02/14 01:59:27;;;;;;;13.50;11.20;;;;;;;6.95;56.32;102500.23;107043;1268;24034;-58
2023/02/14 02:01:56;;;;;;;15.00;11.20;;;;;;;6.91;56.18;102494.61;107043;1267;22646;-58
2023/02/14 02:04:27;;;;;;;15.50;10.60;;;;;;;6.87;56.40;102485.23;107074;1269;24207;-58
2023/02/14 02:07:02;;;;;;;15.90;12.00;;;;;;;6.85;56.56;102475.52;106873;1269;24275;-58
2023/02/14 02:09:42;;;;;;;14.80;11.00;;;;;;;6.86;56.36;102470.36;106329;1272;1003029;-58
2023/02/14 02:12:11;;;;;;;14.80;11.40;;;;;;;6.85;56.41;102466.38;106325;1267;1003635;-58
2023/02/14 02:14:45;;;;;;;14.20;11.40;;;;;;;6.85;56.20;102459.30;106810;1270;25360;-58
2023/02/14 02:17:49;;;;;;;15.00;11.00;;;;;;;6.83;56.27;102455.46;106207;1254;1003732;-58
2023/02/14 02:20:43;;;;;;;13.50;11.10;;;;;;;6.80;56.22;102454.55;105952;1272;1002884;-58
2023/02/14 02:23:32;;;;;;;14.40;11.00;;;;;;;6.77;56.30;102447.75;106605;1273;25385;-58
2023/02/14 02:26:30;;;;;;;14.60;10.60;;;;;;;6.76;56.44;102447.39;106736;1273;25382;-59
2023/02/14 02:29:10;;;;;;;16.30;11.90;;;;;;;6.78;56.45;102446.91;105612;1278;1003668;-58
2023/02/14 02:31:51;;;;;;;15.20;11.10;;;;;;;6.80;56.50;102447.83;105912;1275;1003625;-60
2023/02/14 02:34:25;;;;;;;14.20;10.80;;;;;;;6.83;56.42;102440.98;106598;1258;22523;-59
2023/02/14 02:37:06;;;;;;;12.90;11.00;;;;;;;6.85;56.15;102430.33;106624;1272;22784;-58
2023/02/14 02:39:34;;;;;;;14.40;10.70;;;;;;;6.85;56.12;102433.60;105914;1272;1003350;-57
2023/02/14 02:42:40;;;;;;;15.60;11.40;;;;;;;6.84;56.11;102432.02;106694;1272;23498;-59
2023/02/14 02:45:15;;;;;;;13.60;10.60;;;;;;;6.82;56.10;102430.25;106625;1272;25481;-58
2023/02/14 02:48:07;;;;;;;14.10;11.10;;;;;;;6.81;56.29;102436.45;106722;1275;22529;-58
2023/02/14 02:53:41;;;;;;;14.20;11.30;;;;;;;6.86;55.99;102442.75;106679;1272;24416;-58
2023/02/14 02:59:19;;;;;;;16.30;12.60;;;;;;;6.88;55.60;102443.17;106812;1273;25351;-58
2023/02/14 03:02:25;;;;;;;15.80;12.00;;;;;;;6.87;55.48;102446.08;106815;1267;25373;-58
2023/02/14 03:04:55;;;;;;;20.10;12.30;;;;;;;6.85;55.45;102447.39;106805;1269;22531;-57
2023/02/14 03:07:37;;;;;;;15.40;12.40;;;;;;;6.81;55.35;102445.08;106545;1275;22546;-58
2023/02/14 03:10:12;;;;;;;16.70;12.40;;;;;;;6.79;55.34;102444.36;106654;1267;26496;-58
2023/02/14 03:13:00;;;;;;;16.60;12.60;;;;;;;6.78;55.21;102435.36;106661;1270;24319;-58
2023/02/14 03:15:49;;;;;;;17.90;13.40;;;;;;;6.80;55.15;102432.80;106645;1270;25363;-59
2023/02/14 03:21:18;;;;;;;20.20;14.70;;;;;;;6.84;54.51;102420.66;106630;1270;25409;-58
2023/02/14 03:23:52;;;;;;;17.70;13.30;;;;;;;6.83;54.38;102418.89;106499;1273;25435;-58
2023/02/14 03:26:29;;;;;;;16.60;13.20;;;;;;;6.81;54.17;102415.75;106768;1274;23874;-58
2023/02/14 03:29:12;;;;;;;19.20;14.20;;;;;;;6.79;54.10;102406.23;106696;1270;24412;-58
2023/02/14 03:32:32;;;;;;;19.70;14.90;;;;;;;6.75;53.97;102402.35;106483;1276;23896;-59
2023/02/14 03:35:14;;;;;;;20.20;15.00;;;;;;;6.71;53.90;102401.24;106378;1275;25364;-58
2023/02/14 03:38:10;;;;;;;19.30;14.90;;;;;;;6.70;53.95;102394.16;106300;1276;26531;-58
2023/02/14 03:44:04;;;;;;;21.90;15.40;;;;;;;6.79;53.68;102377.07;103612;1298;544874;-58
2023/02/14 03:46:43;;;;;;;19.60;15.20;;;;;;;6.79;53.54;102376.05;105640;1282;25513;-58
2023/02/14 03:49:14;;;;;;;22.30;14.80;;;;;;;6.81;53.34;102367.11;106044;1282;25446;-58
2023/02/14 03:51:44;;;;;;;20.30;14.70;;;;;;;6.81;53.24;102365.39;105794;1282;24327;-59
2023/02/14 03:54:12;;;;;;;17.90;13.90;;;;;;;6.81;53.21;102370.39;105793;1284;22661;-58
2023/02/14 03:56:45;;;;;;;21.30;15.80;;;;;;;6.78;53.01;102369.14;105689;1264;211142;-58
2023/02/14 03:59:16;;;;;;;20.90;15.30;;;;;;;6.75;53.01;102369.41;106224;1279;22564;-58
2023/02/14 04:02:06;;;;;;;21.80;15.90;;;;;;;6.73;53.08;102369.21;106224;1280;24235;-58
2023/02/14 04:04:36;;;;;;;20.60;15.40;;;;;;;6.72;53.30;102360.39;106050;1280;24209;-57
2023/02/14 04:07:10;;;;;;;17.80;14.50;;;;;;;6.73;53.29;102367.98;106016;1283;22654;-57
2023/02/14 04:09:38;;;;;;;20.50;15.30;;;;;;;6.76;53.20;102376.52;106222;1280;22679;-58
2023/02/14 04:12:09;;;;;;;19.20;14.40;;;;;;;6.80;53.07;102385.71;106264;1280;25389;-58
2023/02/14 04:14:38;;;;;;;18.60;15.00;;;;;;;6.82;52.92;102386.63;105472;1281;1002881;-58
2023/02/14 04:19:54;;;;;;;18.40;14.90;;;;;;;6.82;52.79;102373.02;105934;1282;25374;-57
2023/02/14 04:22:22;;;;;;;20.80;15.80;;;;;;;6.80;52.78;102363.13;106212;1280;25407;-57
2023/02/14 04:24:51;;;;;;;19.30;14.90;;;;;;;6.77;52.84;102361.35;105880;1280;25429;-57
2023/02/14 04:27:19;;;;;;;17.70;13.80;;;;;;;6.74;52.94;102358.19;105916;1283;24342;-58
2023/02/14 04:29:49;;;;;;;21.20;15.90;;;;;;;6.72;52.98;102360.73;106197;1280;25346;-58
2023/02/14 04:32:20;;;;;;;18.90;14.30;;;;;;;6.71;53.19;102367.27;106217;1279;25489;-58
2023/02/14 04:34:49;;;;;;;17.80;14.70;;;;;;;6.71;53.25;102367.26;105902;1280;23115;-59
2023/02/14 04:37:18;;;;;;;18.00;14.50;;;;;;;6.72;53.31;102374.88;106258;1279;25392;-59
2023/02/14 04:39:47;;;;;;;19.80;14.80;;;;;;;6.73;53.28;102368.00;106151;1283;25438;-58
2023/02/14 04:42:15;;;;;;;19.30;14.60;;;;;;;6.75;53.22;102362.68;105899;1284;25364;-58
2023/02/14 04:44:44;;;;;;;16.70;13.80;;;;;;;6.76;53.17;102359.08;106209;1280;25367;-59
2023/02/14 04:47:12;;;;;;;20.60;15.00;;;;;;;6.74;53.26;102360.60;106197;1280;24288;-58
2023/02/14 04:49:41;;;;;;;19.00;14.40;;;;;;;6.73;53.26;102364.55;106163;1285;25383;-58
2023/02/14 04:52:11;;;;;;;18.50;14.20;;;;;;;6.71;53.33;102360.20;106279;1280;25399;-58
2023/02/14 04:54:42;;;;;;;18.60;14.40;;;;;;;6.69;53.49;102362.58;106210;1280;25434;-58
2023/02/14 04:57:11;;;;;;;17.90;14.20;;;;;;;6.68;53.71;102364.80;106797;1268;25370;-58
2023/02/14 04:59:40;;;;;;;16.90;12.70;;;;;;;6.68;54.05;102358.24;106779;1253;22635;-58
2023/02/14 05:02:09;;;;;;;16.70;13.30;;;;;;;6.72;54.26;102354.69;106481;1276;25353;-58
2023/02/14 05:04:38;;;;;;;17.00;13.30;;;;;;;6.76;54.38;102355.97;106624;1276;25493;-58
2023/02/14 05:07:06;;;;;;;14.60;11.50;;;;;;;6.79;54.52;102351.73;106741;1268;25457;-57
2023/02/14 05:09:40;;;;;;;15.70;12.00;;;;;;;6.81;54.54;102350.20;106601;1268;25355;-58
2023/02/14 05:12:09;;;;;;;14.60;12.40;;;;;;;6.81;54.60;102350.91;106687;1268;22584;-58
2023/02/14 05:14:37;;;;;;;17.10;11.90;;;;;;;6.80;54.93;102347.95;105975;1268;1003150;-58
2023/02/14 05:17:06;;;;;;;13.90;11.30;;;;;;;6.79;55.20;102353.63;106563;1269;25354;-58
2023/02/14 05:19:34;;;;;;;14.30;11.10;;;;;;;6.79;55.56;102353.45;106849;1268;25383;-57
2023/02/14 05:22:03;;;;;;;13.00;10.50;;;;;;;6.81;55.97;102353.83;106069;1268;1003743;-58
2023/02/14 05:24:32;;;;;;;13.30;11.30;;;;;;;6.84;56.34;102357.35;106106;1273;1003596;-58
2023/02/14 05:27:00;;;;;;;14.00;11.30;;;;;;;6.88;56.48;102355.86;106026;1273;1003050;-58
2023/02/14 05:29:29;;;;;;;14.50;11.30;;;;;;;6.90;56.41;102356.92;106088;1268;1002871;-58
2023/02/14 05:31:57;;;;;;;12.90;10.80;;;;;;;6.91;56.23;102351.77;106669;1269;25364;-58
2023/02/14 05:34:26;;;;;;;13.90;11.00;;;;;;;6.91;56.25;102342.81;106818;1268;24062;-58
2023/02/14 05:36:56;;;;;;;14.00;10.90;;;;;;;6.90;56.08;102337.98;106839;1268;24292;-58
2023/02/14 05:39:24;;;;;;;13.30;10.80;;;;;;;6.91;56.18;102334.52;106734;1270;25424;-58
2023/02/14 05:41:55;;;;;;;14.20;10.70;;;;;;;6.92;56.01;102340.75;106824;1268;25429;-58
2023/02/14 05:44:26;;;;;;;12.20;10.80;;;;;;;6.96;55.84;102338.59;106774;1260;24307;-57
2023/02/14 05:46:56;;;;;;;13.90;11.30;;;;;;;6.99;55.70;102335.89;106048;1268;1003653;-58
2023/02/14 05:49:24;;;;;;;13.50;10.60;;;;;;;7.02;55.45;102338.17;106766;1276;22636;-57
2023/02/14 05:51:54;;;;;;;14.30;11.00;;;;;;;7.03;55.44;102343.20;106893;1268;26508;-58
2023/02/14 05:54:23;;;;;;;13.40;11.10;;;;;;;7.05;55.23;102340.48;106165;1271;1003577;-57
2023/02/14 05:56:51;;;;;;;17.60;11.40;;;;;;;7.05;55.17;102340.30;106707;1274;25365;-57
2023/02/14 05:59:20;;;;;;;14.90;11.20;;;;;;;7.05;55.11;102344.28;106889;1269;25383;-57
2023/02/14 06:01:49;;;;;;;12.30;10.60;;;;;;;7.05;55.18;102346.17;106907;1268;25341;-58
2023/02/14 06:04:17;;;;;;;13.30;10.30;;;;;;;7.07;55.22;102343.79;106888;1268;24527;-58
2023/02/14 06:06:46;;;;;;;13.30;10.50;;;;;;;7.10;55.23;102333.16;106831;1268;24393;-58
2023/02/14 06:09:14;;;;;;;13.30;10.70;;;;;;;7.13;55.09;102328.89;106835;1268;24212;-58
2023/02/14 06:11:43;;;;;;;13.90;10.80;;;;;;;7.16;54.95;102328.27;106062;1268;1002892;-58
2023/02/14 06:14:12;;;;;;;12.40;10.10;;;;;;;7.18;54.98;102329.16;106784;1274;25381;-58
2023/02/14 06:16:40;;;;;;;14.20;10.40;;;;;;;7.17;54.85;102322.77;106887;1273;24356;-58
2023/02/14 06:19:12;;;;;;;14.00;11.50;;;;;;;7.17;54.81;102324.46;105914;1268;1003264;-58
2023/02/14 06:21:40;;;;;;;13.00;10.40;;;;;;;7.17;54.95;102326.72;106833;1273;25568;-57
2023/02/14 06:24:08;;;;;;;13.40;10.00;;;;;;;7.17;55.09;102324.31;106747;1269;26541;-58
2023/02/14 06:26:39;;;;;;;11.60;9.10;;;;;;;7.18;55.30;102320.18;106753;1268;25352;-58
2023/02/14 06:29:07;;;;;;;10.50;8.90;;;;;;;7.22;55.49;102314.55;106916;1268;25407;-58
2023/02/14 06:31:36;;;;;;;11.40;9.40;;;;;;;7.25;55.84;102302.86;106790;1268;22597;-58
2023/02/14 06:34:04;;;;;;;12.20;10.10;;;;;;;7.28;55.82;102295.32;106713;1274;25386;-58
2023/02/14 06:36:34;;;;;;;10.60;8.80;;;;;;;7.30;55.97;102297.23;106968;1268;25358;-57
2023/02/14 06:39:03;;;;;;;11.50;9.10;;;;;;;7.32;56.01;102297.63;106843;1268;25374;-58
2023/02/14 06:41:32;;;;;;;10.50;9.10;;;;;;;7.33;56.12;102295.76;106818;1253;22558;-58
2023/02/14 06:44:00;;;;;;;11.00;8.30;;;;;;;7.35;56.39;102287.48;106825;1268;22782;-58
2023/02/14 06:46:28;;;;;;;10.90;8.90;;;;;;;7.37;56.61;102276.48;106901;1269;26517;-58
2023/02/14 06:48:57;;;;;;;9.80;8.30;;;;;;;7.41;56.58;102276.20;106797;1268;26582;-58
2023/02/14 06:51:26;;;;;;;11.00;8.50;;;;;;;7.45;56.72;102272.09;106905;1269;25377;-58
2023/02/14 06:53:54;;;;;;;9.60;8.50;;;;;;;7.47;56.54;102271.27;106916;1269;25383;-58
2023/02/14 06:56:23;;;;;;;10.90;8.90;;;;;;;7.50;56.70;102274.59;106670;1272;25417;-58
2023/02/14 06:58:51;;;;;;;13.80;8.30;;;;;;;7.50;56.89;102272.17;106489;1271;25358;-57
2023/02/14 07:01:20;;;;;;;10.60;8.70;;;;;;;7.51;56.87;102266.67;106655;1276;25483;-58
2023/02/14 07:03:48;;;;;;;9.70;8.40;;;;;;;7.52;57.15;102262.55;106658;1268;25365;-57
2023/02/14 07:06:17;;;;;;;10.00;7.60;;;;;;;7.56;57.16;102257.08;106550;1271;25367;-58
2023/02/14 07:08:46;;;;;;;9.30;7.40;;;;;;;7.60;57.23;102252.48;106811;1268;25383;-57
2023/02/14 07:11:15;;;;;;;9.00;7.70;;;;;;;7.64;57.21;102257.89;106754;1271;25355;-57
2023/02/14 07:13:44;;;;;;;10.40;8.10;;;;;;;7.67;57.19;102253.26;106895;1268;25435;-57
2023/02/14 07:16:16;;;;;;;8.70;7.10;;;;;;;7.68;57.31;102256.22;105997;1271;1003265;-58
2023/02/14 07:18:44;;;;;;;8.50;7.60;;;;;;;7.70;57.27;102255.89;106113;1268;1003037;-58
2023/02/14 07:21:14;;;;;;;9.70;7.30;;;;;;;7.71;57.33;102259.19;106787;1269;25344;-59
2023/02/14 07:23:46;;;;;;;9.70;7.80;;;;;;;7.73;57.37;102264.06;106827;1268;24403;-59
2023/02/14 07:26:16;;;;;;;8.70;7.80;;;;;;;7.77;57.43;102268.09;106882;1273;25295;-59
2023/02/14 07:28:47;;;;;;;8.60;6.90;;;;;;;7.83;57.52;102269.55;106865;1268;25310;-58
2023/02/14 07:31:17;;;;;;;8.80;7.30;;;;;;;7.89;57.44;102268.06;106920;1268;23901;-58
2023/02/14 07:33:46;;;;;;;9.90;7.70;;;;;;;7.93;57.36;102268.30;106051;1271;1003933;-58
2023/02/14 07:36:15;;;;;;;7.80;7.00;;;;;;;7.96;57.13;102265.07;106958;1268;22659;-58
2023/02/14 07:38:44;;;;;;;8.10;6.80;;;;;;;7.98;57.38;102261.80;106765;1268;25453;-58
2023/02/14 07:41:12;;;;;;;8.90;7.10;;;;;;;7.99;57.51;102266.48;106857;1268;25364;-57
2023/02/14 07:43:40;;;;;;;8.00;7.20;;;;;;;8.00;57.60;102262.00;106159;1268;1003757;-58
2023/02/14 07:46:09;;;;;;;7.60;6.80;;;;;;;8.03;57.57;102259.27;106822;1268;22747;-58
2023/02/14 07:48:39;;;;;;;7.80;6.70;;;;;;;8.05;57.45;102266.56;106100;1268;1003836;-58
2023/02/14 07:55:15;;;;;;;7.70;6.20;;;;;;;8.11;57.41;102265.43;104493;1296;558409;-58
2023/02/14 07:57:42;;;;;;;8.60;7.60;;;;;;;8.12;57.28;102265.09;105918;1281;22539;-57
2023/02/14 08:00:10;;;;;;;9.10;6.70;;;;;;;8.12;57.24;102264.39;105848;1282;25447;-58
2023/02/14 08:02:40;;;;;;;7.80;6.60;;;;;;;8.11;57.34;102265.77;105819;1282;22601;-58
2023/02/14 08:05:07;;;;;;;9.30;6.50;;;;;;;8.11;57.42;102255.05;106013;1283;25476;-57
2023/02/14 08:07:35;;;;;;;7.80;6.60;;;;;;;8.12;57.27;102253.34;106011;1283;206816;-57
2023/02/14 08:10:02;;;;;;;8.10;7.30;;;;;;;8.13;57.55;102256.29;105436;1282;1003224;-58
2023/02/14 08:18:11;;;;;;;8.30;7.40;;;;;;;8.16;57.62;102258.21;106326;1281;25369;-58
2023/02/14 08:20:39;;;;;;;8.10;6.90;;;;;;;8.18;57.67;102259.46;105705;1280;1003029;-58
2023/02/14 08:23:10;;;;;;;7.60;6.80;;;;;;;8.21;57.92;102252.76;106288;1282;25369;-58
2023/02/14 08:25:38;;;;;;;7.00;6.30;;;;;;;8.26;58.14;102246.80;106244;1280;25444;-58
2023/02/14 08:28:06;;;;;;;8.20;6.60;;;;;;;8.32;58.36;102246.85;106355;1279;25386;-58
2023/02/14 08:30:37;;;;;;;9.50;8.20;;;;;;;8.36;58.53;102255.55;106265;1265;25389;-58
2023/02/14 08:33:04;;;;;;;8.20;7.40;;;;;;;8.40;58.34;102256.81;106259;1281;22819;-58
2023/02/14 08:35:32;;;;;;;10.50;7.80;;;;;;;8.42;58.51;102258.04;105955;1272;1003005;-58
2023/02/14 08:37:59;;;;;;;10.80;8.40;;;;;;;8.44;58.51;102261.86;106798;1259;22526;-58
2023/02/14 08:40:27;;;;;;;10.10;8.00;;;;;;;8.46;58.55;102252.04;106728;1276;25508;-57
2023/02/14 08:42:54;;;;;;;7.20;6.50;;;;;;;8.49;58.58;102248.94;106670;1271;25355;-58
2023/02/14 08:45:22;;;;;;;9.40;7.70;;;;;;;8.53;58.64;102255.90;106700;1272;25383;-58
2023/02/14 08:47:49;;;;;;;8.00;7.00;;;;;;;8.57;58.65;102256.30;106613;1267;25358;-58
2023/02/14 08:50:17;;;;;;;8.40;7.50;;;;;;;8.63;58.61;102258.44;106713;1274;25504;-58
2023/02/14 08:52:44;;;;;;;10.60;7.50;;;;;;;8.66;58.31;102259.31;106458;1272;26569;-58
2023/02/14 08:55:12;;;;;;;8.10;7.20;;;;;;;8.67;58.49;102262.79;106470;1276;25389;-59
2023/02/14 08:57:41;;;;;;;8.00;7.30;;;;;;;8.69;58.56;102256.41;106276;1280;25386;-58
2023/02/14 09:00:09;;;;;;;8.80;7.40;;;;;;;8.70;58.51;102249.68;106296;1271;25573;-59
2023/02/14 09:02:38;;;;;;;8.00;7.20;;;;;;;8.72;58.60;102249.17;106369;1272;22529;-58
2023/02/14 09:05:08;;;;;;;7.90;6.80;;;;;;;8.75;58.82;102242.64;106028;1272;25369;-58
2023/02/14 09:07:35;;;;;;;8.40;7.60;;;;;;;8.76;58.59;102246.44;106943;1269;22542;-58
2023/02/14 09:10:09;;;;;;;8.70;7.70;;;;;;;8.75;58.85;102244.38;106616;1268;25490;-58
2023/02/14 09:12:40;;;;;;;7.10;6.40;;;;;;;8.75;58.99;102251.28;106966;1269;23002;-58
2023/02/14 09:15:08;;;;;;;9.90;7.60;;;;;;;8.72;59.12;102238.11;106986;1269;26194;-59
2023/02/14 09:17:36;;;;;;;9.60;7.20;;;;;;;8.69;59.17;102236.86;106799;1269;22519;-58
2023/02/14 09:20:05;;;;;;;8.20;7.30;;;;;;;8.65;59.48;102241.16;107124;1268;25352;-58
2023/02/14 09:22:35;;;;;;;8.90;7.40;;;;;;;8.68;59.85;102234.79;106858;1269;25341;-58
2023/02/14 09:25:04;;;;;;;7.80;6.80;;;;;;;8.72;59.79;102232.05;106833;1263;25366;-58
2023/02/14 09:27:31;;;;;;;8.60;7.70;;;;;;;8.74;60.03;102220.83;107158;1266;24365;-57
2023/02/14 09:29:59;;;;;;;9.90;7.70;;;;;;;8.77;60.07;102220.33;107028;1266;26496;-58
2023/02/14 09:32:27;;;;;;;10.90;7.90;;;;;;;8.79;60.15;102220.69;107040;1266;24240;-58
2023/02/14 09:40:26;;;;;;;8.10;7.20;;;;;;;8.84;59.80;102209.66;107084;1267;25420;-59
2023/02/14 09:43:29;;;;;;;7.10;6.40;;;;;;;8.83;59.79;102206.04;107146;1266;25344;-58
2023/02/14 09:45:56;;;;;;;8.10;7.10;;;;;;;8.87;59.79;102201.57;106388;1266;1003189;-58
2023/02/14 09:48:32;;;;;;;8.50;6.80;;;;;;;8.90;59.91;102192.24;107097;1272;24268;-58
2023/02/14 09:51:07;;;;;;;7.00;6.30;;;;;;;8.96;60.05;102182.26;106972;1269;24192;-58
2023/02/14 09:53:39;;;;;;;8.80;6.70;;;;;;;9.02;59.70;102176.58;107025;1266;24342;-58
2023/02/14 09:56:37;;;;;;;7.50;6.70;;;;;;;9.03;59.25;102174.33;107020;1266;22557;-58
2023/02/14 09:59:45;;;;;;;8.10;7.20;;;;;;;8.96;58.63;102167.02;107068;1266;25402;-59
2023/02/14 10:02:39;;;;;;;9.60;6.30;;;;;;;8.90;58.78;102162.66;107039;1267;25499;-57
2023/02/14 10:05:27;;;;;;;7.50;6.20;;;;;;;8.90;58.93;102158.16;106366;1267;1003813;-59
2023/02/14 10:07:55;;;;;;;7.30;6.40;;;;;;;8.90;58.92;102152.45;106855;1267;26497;-58
2023/02/14 10:10:40;;;;;;;7.80;6.60;;;;;;;8.89;58.87;102153.30;107088;1266;25335;-58
2023/02/14 10:13:30;;;;;;;8.10;6.40;;;;;;;8.90;58.81;102144.65;107134;1266;25421;-58
2023/02/14 10:16:17;;;;;;;6.90;6.10;;;;;;;8.89;58.83;102132.01;107062;1266;25468;-58
2023/02/14 10:19:03;;;;;;;6.90;6.20;;;;;;;8.92;58.85;102136.55;107153;1266;26599;-58
2023/02/14 10:21:55;;;;;;;7.60;6.60;;;;;;;8.93;58.66;102128.23;107058;1267;24629;-58
2023/02/14 10:24:37;;;;;;;7.30;5.80;;;;;;;8.90;58.52;102133.92;107004;1267;25415;-59
2023/02/14 10:27:28;;;;;;;7.10;6.10;;;;;;;8.86;58.61;102130.44;107171;1268;23245;-58
2023/02/14 10:29:55;;;;;;;8.90;6.30;;;;;;;8.88;58.69;102128.55;107050;1269;25450;-58
2023/02/14 10:32:37;;;;;;;9.50;7.10;;;;;;;8.87;58.41;102131.64;107036;1267;24199;-58
2023/02/14 10:35:10;;;;;;;7.90;6.60;;;;;;;8.83;58.41;102124.37;106819;1269;25501;-58
2023/02/14 10:38:02;;;;;;;7.90;7.10;;;;;;;8.79;58.55;102127.44;106952;1267;25408;-58
2023/02/14 10:41:01;;;;;;;8.10;7.20;;;;;;;8.76;58.40;102132.25;106305;1267;1002934;-59
2023/02/14 10:43:37;;;;;;;7.70;6.80;;;;;;;8.75;58.42;102141.60;106374;1267;1003956;-58
2023/02/14 10:46:44;;;;;;;7.30;5.90;;;;;;;8.75;58.35;102133.46;107138;1268;25825;-58
2023/02/14 10:49:34;;;;;;;8.30;6.50;;;;;;;8.76;58.18;102133.81;106635;1267;24382;-58
2023/02/14 10:52:42;;;;;;;9.10;7.30;;;;;;;8.74;58.25;102128.44;106461;1267;25343;-57
2023/02/14 10:55:41;;;;;;;10.10;7.20;;;;;;;8.72;58.24;102126.52;106164;1276;25491;-58
2023/02/14 10:58:12;;;;;;;8.40;6.90;;;;;;;8.73;58.02;102137.94;105871;1282;25518;-58
2023/02/14 11:00:50;;;;;;;9.00;7.30;;;;;;;8.72;58.03;102133.77;105659;1286;22543;-58
2023/02/14 11:03:18;;;;;;;7.20;6.30;;;;;;;8.72;57.94;102136.20;105762;1284;25368;-58
2023/02/14 11:05:48;;;;;;;6.30;5.70;;;;;;;8.73;57.92;102138.64;105829;1283;25368;-58
2023/02/14 11:08:21;;;;;;;6.70;6.00;;;;;;;8.73;57.93;102133.45;105907;1283;25401;-59
2023/02/14 11:10:50;;;;;;;7.00;6.10;;;;;;;8.72;57.81;102134.13;105909;1275;25531;-57
2023/02/14 11:13:47;;;;;;;9.10;5.70;;;;;;;8.70;57.79;102136.19;105854;1282;25378;-57
2023/02/14 11:16:28;;;;;;;7.30;5.90;;;;;;;8.66;57.64;102124.40;105468;1289;25462;-58
2023/02/14 11:19:33;;;;;;;7.30;5.80;;;;;;;8.64;57.92;102113.30;105500;1289;22539;-59
2023/02/14 11:22:03;;;;;;;13.00;7.00;;;;;;;8.65;57.91;102113.83;104596;1298;22584;-57
2023/02/14 11:24:31;;;;;;;9.60;6.10;;;;;;;8.63;58.10;102124.04;104730;1296;24289;-58
2023/02/14 11:27:03;;;;;;;6.50;5.70;;;;;;;8.61;58.39;102124.88;104272;1295;1004366;-58
2023/02/14 11:29:38;;;;;;;6.80;5.90;;;;;;;8.58;58.68;102125.20;104757;1295;25379;-58
2023/02/14 11:32:09;;;;;;;6.00;5.40;;;;;;;8.59;58.80;102118.98;105470;1289;25822;-58
2023/02/14 11:34:58;;;;;;;8.50;6.10;;;;;;;8.60;59.04;102116.92;105685;1281;24256;-58
2023/02/14 11:41:10;;;;;;;7.40;5.90;;;;;;;8.61;59.11;102107.76;105926;1281;25416;-58
2023/02/14 11:43:41;;;;;;;;;;;;;;;8.59;58.68;102093.91;106007;1280;25364;-59
2023/02/14 11:46:22;;;;;;;5.70;5.10;;;;;;;8.60;59.03;102087.86;105870;1280;22542;-58
2023/02/14 11:48:57;;;;;;;5.40;4.80;;;;;;;8.60;59.14;102084.74;105940;1280;25376;-58
2023/02/14 11:51:27;;;;;;;6.60;5.40;;;;;;;8.64;58.83;102084.42;105218;1280;1003024;-59
2023/02/14 11:53:56;;;;;;;6.30;5.60;;;;;;;8.67;58.84;102078.91;106456;1274;22770;-58
2023/02/14 11:56:23;;;;;;;5.60;5.00;;;;;;;8.72;58.67;102068.39;106381;1279;23039;-58
2023/02/14 11:58:54;;;;;;;6.00;5.30;;;;;;;8.79;58.28;102069.66;106615;1274;25373;-58
2023/02/14 12:04:53;;;;;;;5.90;4.80;;;;;;;8.83;57.64;102067.42;103739;1299;544936;-57
2023/02/14 12:07:25;;;;;;;6.50;5.40;;;;;;;8.77;57.35;102063.23;106144;1281;22770;-58
2023/02/14 12:10:10;;;;;;;7.40;5.70;;;;;;;8.72;57.10;102067.70;105894;1281;25434;-59
2023/02/14 12:12:55;;;;;;;7.90;5.00;;;;;;;8.67;57.23;102065.77;105867;1282;25363;-59
2023/02/14 12:15:29;;;;;;;7.20;5.50;;;;;;;8.62;57.19;102067.80;105459;1281;1002926;-58
2023/02/14 12:18:19;;;;;;;5.90;4.60;;;;;;;8.59;57.31;102061.73;105994;1285;232322;-58
2023/02/14 12:20:57;;;;;;;4.70;4.20;;;;;;;8.56;57.33;102067.77;106002;1280;25388;-58
2023/02/14 12:23:34;;;;;;;6.50;5.40;;;;;;;8.54;57.25;102074.14;106333;1279;25423;-58